Flight Track Log - Related Links

Times and Time Zones

All times are in EDT time to prevent confusion due to time zone crossing. See the EVA36 flight status page for this flight to view local times or setup timezone preferences in your user account.

Time Position Orientation Groundspeed Altitude Reporting Facility
EDT Latitude Longitude Course Direction KTS MPH feet Rate Location/Type
Thu 03:30:25 PM 49.1000 -146.6833 89° East 534 615 33,000  Level Oakland Oceanic (ODAPS)
Thu 03:57:07 PM 49.0333 -140.6667 94° East 522 601 33,000  Level Oakland Oceanic (ODAPS)
Thu 04:00:10 PM 49.0000 -140.0000 87° East 524 603 33,000 75 Level Oakland Oceanic (ODAPS)
Thu 04:23:47 PM 49.0500 -134.7833 92° East 518 596 35,000 55 Climbing Oakland Oceanic (ODAPS)
Thu 04:36:32 PM 48.9667 -131.9667 92° East 540 621 35,000  Level Vancouver Center
Thu 04:41:32 PM 48.9333 -130.8667 90° East 520 598 35,000  Level Vancouver Center
Thu 04:42:32 PM 48.9333 -130.6667 90° East 520 598 35,000  Level Vancouver Center
Thu 04:43:32 PM 48.9333 -130.4333 97° East 520 598 35,000  Level Vancouver Center
Thu 04:44:32 PM 48.9167 -130.2333 96° East 520 598 35,000  Level Vancouver Center
Thu 04:45:32 PM 48.9000 -130.0000 90° East 520 598 35,000  Level Vancouver Center
Thu 04:46:32 PM 48.9000 -129.7667 90° East 520 598 35,000  Level Vancouver Center
Thu 04:47:32 PM 48.9000 -129.5667 96° East 520 598 35,000  Level Vancouver Center
Thu 04:48:32 PM 48.8833 -129.3333 90° East 520 598 35,000  Level Vancouver Center
Thu 04:49:32 PM 48.8833 -129.1333 102° East 520 598 35,000  Level Vancouver Center
Thu 04:50:32 PM 48.8500 -128.9000 90° East 520 598 35,000  Level Vancouver Center
Thu 04:51:32 PM 48.8500 -128.6667 90° East 520 598 35,000  Level Vancouver Center
Thu 04:52:32 PM 48.8500 -128.4500 97° East 520 598 35,000  Level Vancouver Center
Thu 04:53:32 PM 48.8333 -128.2333 97° East 520 598 35,000  Level Vancouver Center
Thu 04:54:32 PM 48.8167 -128.0333 96° East 520 598 35,000  Level Vancouver Center
Thu 04:55:32 PM 48.8000 -127.8000 90° East 520 598 35,000  Level Vancouver Center
Thu 04:56:32 PM 48.8000 -127.5833 96° East 520 598 35,000  Level Vancouver Center
Thu 04:57:32 PM 48.7833 -127.3500 97° East 530 610 35,000  Level Vancouver Center
Thu 04:58:32 PM 48.7667 -127.1500 96° East 520 598 35,000  Level Vancouver Center
Thu 04:59:32 PM 48.7500 -126.9167 97° East 520 598 35,000  Level Vancouver Center
Thu 05:00:32 PM 48.7333 -126.7167 96° East 520 598 35,000  Level Vancouver Center
Thu 05:01:32 PM 48.7167 -126.4833 90° East 520 598 35,000  Level Vancouver Center
Thu 05:02:32 PM 48.7167 -126.2500 104° East 520 598 35,000  Level Vancouver Center
Thu 05:03:32 PM 48.6833 -126.0500 91° East 520 598 35,000 -34 Level Vancouver Center
Thu 05:05:28 PM 48.6797 -125.6553 97° East 516 594 34,900 -34 Descending Seattle Center
Thu 05:06:30 PM 48.6631 -125.4381 97° East 518 596 34,900 49 Level Seattle Center
Thu 05:07:31 PM 48.6458 -125.2211 97° East 520 598 35,000  Climbing Seattle Center
Thu 05:08:33 PM 48.6253 -124.9603 97° East 519 597 34,900  Descending Seattle Center
Thu 05:09:34 PM 48.6067 -124.7431 97° East 518 596 35,000  Climbing Seattle Center
Thu 05:10:36 PM 48.5881 -124.5250 97° East 515 593 34,900 -49 Descending Seattle Center
Thu 05:11:37 PM 48.5689 -124.3058 98° East 519 597 34,900  Level Seattle Center
Thu 05:12:39 PM 48.5492 -124.0892 98° East 519 597 34,900  Level Seattle Center
Thu 05:13:41 PM 48.5297 -123.8722 98° East 520 598 34,900 49 Level Seattle Center
Thu 05:14:42 PM 48.5092 -123.6533 98° East 525 604 35,000 49 Climbing Seattle Center
Thu 05:15:43 PM 48.4922 -123.4797 98° East 524 603 35,000  Level Seattle Center
Thu 05:16:45 PM 48.4661 -123.1969 105° East 525 604 35,000  Level Seattle Center
Thu 05:17:32 PM 48.4333 -123.0167 97° East 530 610 35,000  Level Vancouver Center
Thu 05:18:32 PM 48.4167 -122.8000 95° East 530 610 35,000  Level Vancouver Center
Thu 05:19:50 PM 48.4006 -122.5489 99° East 525 604 35,000  Level Seattle Center
Thu 05:20:52 PM 48.3772 -122.3333 99° East 525 604 35,000  Level Seattle Center
Thu 05:21:53 PM 48.3542 -122.1181 99° East 525 604 35,000  Level Seattle Center
Thu 05:22:55 PM 48.3261 -121.8597 99° East 525 604 35,000  Level Seattle Center
Thu 05:23:56 PM 48.3025 -121.6444 100° East 526 605 35,000  Level Seattle Center
Thu 05:24:58 PM 48.2781 -121.4289 105° East 527 606 35,000  Level Seattle Center
Thu 05:25:32 PM 48.2500 -121.2667 104° East 530 610 35,000  Level Vancouver Center
Thu 05:26:32 PM 48.2167 -121.0667 97° East 530 610 35,000  Level Vancouver Center
Thu 05:27:32 PM 48.2000 -120.8500 89° East 530 610 35,000 -67 Level Vancouver Center
Thu 05:28:02 PM 48.2006 -120.7717 100° East 532 612 34,900  Descending Seattle Center
Thu 05:29:04 PM 48.1739 -120.5542 101° East 533 613 35,000  Climbing Seattle Center
Thu 05:30:05 PM 48.1456 -120.3378 101° East 532 612 34,900 -49 Descending Seattle Center
Thu 05:31:07 PM 48.1128 -120.0769 101° East 532 612 34,900 48 Level Seattle Center
Thu 05:32:09 PM 48.0844 -119.8597 101° East 533 613 35,000  Climbing Seattle Center
Thu 05:33:10 PM 48.0569 -119.6419 101° East 534 615 34,900 -49 Descending Seattle Center
Thu 05:34:12 PM 48.0275 -119.4267 101° East 533 613 34,900  Level Seattle Center
Thu 05:35:13 PM 47.9986 -119.2094 101° East 533 613 34,900 49 Level Seattle Center
Thu 05:36:15 PM 47.9694 -118.9947 102° East 532 612 35,000  Climbing Seattle Center
Thu 05:37:16 PM 47.9394 -118.7781 102° East 533 613 34,900  Descending Seattle Center
Thu 05:38:18 PM 47.9092 -118.5650 102° East 530 610 35,000 48 Climbing Seattle Center
Thu 05:39:20 PM 47.8719 -118.3089 102° East 529 609 35,000 -49 Level Seattle Center
Thu 05:40:21 PM 47.8417 -118.0933 102° East 531 611 34,900  Descending Seattle Center
Thu 05:41:23 PM 47.8100 -117.8778 102° East 533 613 35,000 49 Climbing Seattle Center
Thu 05:42:24 PM 47.7775 -117.6597 103° East 537 618 35,000 -49 Level Seattle Center
Thu 05:43:26 PM 47.7447 -117.4417 103° East 540 621 34,900  Descending Seattle Center
Thu 05:44:27 PM 47.7114 -117.2225 102° East 540 621 35,000  Climbing Seattle Center
Thu 05:45:29 PM 47.6781 -116.9978 104° East 540 621 34,900 -49 Descending Seattle Center
Thu 05:46:30 PM 47.6414 -116.7750 104° East 544 626 34,900  Level Seattle Center
Thu 05:47:32 PM 47.6058 -116.5581 92° East 542 624 34,900  Level Seattle Center
Thu 05:48:33 PM 47.6008 -116.3358 90° East 546 628 34,900  Level Seattle Center
Thu 05:49:35 PM 47.6017 -116.1122 91° East 544 626 34,900  Level Seattle Center
Thu 05:50:36 PM 47.5981 -115.8433 91° East 545 627 34,900 49 Level Seattle Center
Thu 05:51:38 PM 47.5950 -115.6367 91° East 546 628 35,000  Climbing Seattle Center
Thu 05:52:39 PM 47.5925 -115.4136 90° East 544 626 34,900  Descending Seattle Center
Thu 05:53:41 PM 47.5925 -115.1894 90° East 546 628 35,000 49 Climbing Seattle Center
Thu 05:54:42 PM 47.5919 -114.9642 90° East 550 633 35,000  Level Seattle Center
Thu 05:55:44 PM 47.5903 -114.6961 91° East 549 632 35,000 -49 Level Seattle Center
Thu 05:56:45 PM 47.5878 -114.4733 91° East 549 632 34,900  Descending Seattle Center
Thu 05:57:47 PM 47.5856 -114.2486 91° East 551 634 35,000 49 Climbing Seattle Center
Thu 05:58:48 PM 47.5822 -114.0236 91° East 553 636 35,000  Level Seattle Center
Thu 05:59:50 PM 47.5792 -113.7978 92° East 554 638 35,000 -41 Level Seattle Center
Thu 06:01:14 PM 47.5725 -113.4853 92° East 548 631 34,900  Descending Salt Lake Center
Thu 06:02:16 PM 47.5658 -113.2147 92° East 550 633 35,000  Climbing Salt Lake Center
Thu 06:03:18 PM 47.5606 -112.9903 91° East 550 633 34,900  Descending Salt Lake Center
Thu 06:04:20 PM 47.5575 -112.7667 92° East 548 631 35,000  Climbing Salt Lake Center
Thu 06:05:23 PM 47.5514 -112.5425 93° East 548 631 34,900 -48 Descending Salt Lake Center
Thu 06:06:25 PM 47.5444 -112.3183 93° East 547 629 34,900  Level Salt Lake Center
Thu 06:07:27 PM 47.5358 -112.0492 93° East 549 632 34,900  Level Salt Lake Center
Thu 06:08:29 PM 47.5289 -111.8256 93° East 548 631 34,900  Level Salt Lake Center
Thu 06:09:31 PM 47.5217 -111.6019 93° East 548 631 34,900  Level Salt Lake Center
Thu 06:10:33 PM 47.5133 -111.3794 93° East 551 634 34,900  Level Salt Lake Center
Thu 06:11:35 PM 47.5028 -111.1189 93° East 552 635 34,900  Level Salt Lake Center
Thu 06:12:38 PM 47.4942 -110.8994 93° East 547 629 34,900 48 Level Salt Lake Center
Thu 06:13:40 PM 47.4858 -110.6803 93° East 541 623 35,000  Climbing Salt Lake Center
Thu 06:14:42 PM 47.4769 -110.4617 95° East 538 619 34,900  Descending Salt Lake Center
Thu 06:15:44 PM 47.4644 -110.2422 94° East 538 619 35,000  Climbing Salt Lake Center
Thu 06:16:46 PM 47.4525 -109.9786 94° East 537 618 34,900  Descending Salt Lake Center
Thu 06:17:48 PM 47.4417 -109.7533 94° East 546 628 35,000  Climbing Salt Lake Center
Thu 06:18:50 PM 47.4314 -109.5311 95° East 546 628 34,900  Descending Salt Lake Center
Thu 06:19:53 PM 47.4192 -109.3100 96° East 544 626 35,000  Climbing Salt Lake Center
Thu 06:20:55 PM 47.4044 -109.0961 95° East 535 616 34,900 -48 Descending Salt Lake Center
Thu 06:21:57 PM 47.3925 -108.8792 95° East 533 613 34,900  Level Salt Lake Center
Thu 06:22:59 PM 47.3781 -108.6156 95° East 536 617 34,900  Level Salt Lake Center
Thu 06:24:01 PM 47.3642 -108.3983 95° East 537 618 34,900 48 Level Salt Lake Center
Thu 06:25:03 PM 47.3494 -108.1661 96° East 541 623 35,000 48 Climbing Salt Lake Center
Thu 06:26:05 PM 47.3347 -107.9569 96° East 539 620 35,000  Level Salt Lake Center
Thu 06:27:07 PM 47.3172 -107.7131 96° East 537 618 35,000  Level Salt Lake Center
Thu 06:28:09 PM 47.3033 -107.5039 96° East 535 616 35,000  Level Salt Lake Center
Thu 06:29:12 PM 47.2850 -107.2617 96° East 534 615 35,000  Level Salt Lake Center
Thu 06:30:14 PM 47.2700 -107.0556 96° East 531 611 35,000  Level Salt Lake Center
Thu 06:31:16 PM 47.2511 -106.8122 97° East 534 615 35,000  Level Salt Lake Center
Thu 06:32:18 PM 47.2342 -106.6053 97° East 533 613 35,000  Level Salt Lake Center
Thu 06:33:20 PM 47.2153 -106.3653 97° East 530 610 35,000  Level Salt Lake Center
Thu 06:34:22 PM 47.1967 -106.1419 97° East 530 610 35,000  Level Salt Lake Center
Thu 06:35:24 PM 47.1789 -105.9286 97° East 531 611 35,000  Level Salt Lake Center
Thu 06:36:26 PM 47.1606 -105.7158 97° East 528 608 35,000  Level Salt Lake Center
Thu 06:37:28 PM 47.1417 -105.5061 97° East 525 604 35,000  Level Salt Lake Center
Thu 06:38:30 PM 47.1228 -105.2967 98° East 523 602 35,000  Level Salt Lake Center
Thu 06:39:32 PM 47.1025 -105.0872 98° East 521 600 35,000 242 Level Salt Lake Center
Thu 06:40:34 PM 47.0792 -104.8400 98° East 518 596 35,500 484 Climbing Salt Lake Center
Thu 06:41:36 PM 47.0589 -104.6350 98° East 514 592 36,000 484 Climbing Salt Lake Center
Thu 06:42:38 PM 47.0383 -104.4278 99° East 516 594 36,500 484 Climbing Salt Lake Center
Thu 06:43:40 PM 47.0167 -104.2214 99° East 516 594 37,000 242 Climbing Salt Lake Center
Thu 06:44:42 PM 46.9942 -104.0139 99° East 517 595 37,000  Level Salt Lake Center
Thu 06:45:44 PM 46.9678 -103.7678 99° East 518 596 37,000  Level Salt Lake Center
Thu 06:46:46 PM 46.9458 -103.5644 99° East 515 593 37,000  Level Salt Lake Center
Thu 06:47:48 PM 46.9247 -103.3603 99° East 513 590 37,000  Level Salt Lake Center
Thu 06:48:50 PM 46.9022 -103.1572 99° East 511 588 37,000  Level Salt Lake Center
Thu 06:49:52 PM 46.8794 -102.9542 96° East 511 588 37,000  Level Salt Lake Center
Thu 06:50:54 PM 46.8600 -102.7078 90° East 513 590 37,000  Level Salt Lake Center
Thu 06:51:56 PM 46.8594 -102.4956 89° East 521 600 37,000  Level Salt Lake Center
Thu 06:52:55 PM 46.8606 -102.2831 89° East 519 597 37,000  Level Minneapolis Center
Thu 06:53:55 PM 46.8619 -102.0731 89° East 524 603 37,000  Level Minneapolis Center
Thu 06:54:55 PM 46.8631 -101.8631 89° East 519 597 37,000  Level Minneapolis Center
Thu 06:55:55 PM 46.8658 -101.6808 91° East 512 589 37,000  Level Minneapolis Center
Thu 06:56:55 PM 46.8642 -101.4706 90° East 507 583 37,000  Level Minneapolis Center
Thu 06:57:55 PM 46.8631 -101.2725 91° East 507 583 37,000  Level Minneapolis Center
Thu 06:58:55 PM 46.8606 -101.0622 90° East 502 578 37,000  Level Minneapolis Center
Thu 06:59:55 PM 46.8597 -100.8519 90° East 502 578 37,000  Level Minneapolis Center
Thu 07:00:55 PM 46.8583 -100.6481 91° East 502 578 37,000  Level Minneapolis Center
Thu 07:01:55 PM 46.8564 -100.4103 91° East 513 590 37,000  Level Minneapolis Center
Thu 07:02:55 PM 46.8542 -100.2033 92° East 519 597 37,000  Level Minneapolis Center
Thu 07:03:55 PM 46.8494 -99.9958 91° East 519 597 37,000  Level Minneapolis Center
Thu 07:04:55 PM 46.8467 -99.7889 92° East 519 597 37,000  Level Minneapolis Center
Thu 07:05:55 PM 46.8411 -99.5814 90° East 519 597 37,000  Level Minneapolis Center
Thu 07:06:55 PM 46.8397 -99.3744 93° East 519 597 37,000  Level Minneapolis Center
Thu 07:07:55 PM 46.8333 -99.1672 92° East 519 597 37,000  Level Minneapolis Center
Thu 07:08:55 PM 46.8272 -98.9569 92° East 519 597 37,000  Level Minneapolis Center
Thu 07:09:55 PM 46.8206 -98.7406 93° East 519 597 37,000  Level Minneapolis Center
Thu 07:10:55 PM 46.8133 -98.5333 92° East 519 597 37,000  Level Minneapolis Center
Thu 07:11:55 PM 46.8078 -98.3264 93° East 519 597 37,000  Level Minneapolis Center
Thu 07:12:55 PM 46.8000 -98.1133 92° East 525 604 37,000  Level Minneapolis Center
Thu 07:13:55 PM 46.7939 -97.9033 93° East 525 604 37,000  Level Minneapolis Center
Thu 07:14:55 PM 46.7853 -97.6903 94° East 519 597 37,000  Level Minneapolis Center
Thu 07:15:55 PM 46.7761 -97.4833 93° East 519 597 37,000  Level Minneapolis Center
Thu 07:16:55 PM 46.7686 -97.2764 93° East 519 597 37,000  Level Minneapolis Center
Thu 07:17:55 PM 46.7608 -97.0667 93° East 519 597 37,000  Level Minneapolis Center
Thu 07:18:55 PM 46.7525 -96.8631 88° East 519 597 37,000  Level Minneapolis Center
Thu 07:19:55 PM 46.7564 -96.6542 87° East 519 597 37,000  Level Minneapolis Center
Thu 07:20:55 PM 46.7644 -96.4394 88° East 519 597 37,000  Level Minneapolis Center
Thu 07:21:55 PM 46.7697 -96.2336 87° East 512 589 37,000  Level Minneapolis Center
Thu 07:22:55 PM 46.7767 -96.0247 88° East 512 589 37,000  Level Minneapolis Center
Thu 07:23:55 PM 46.7803 -95.8581 88° East 512 589 37,000  Level Minneapolis Center
Thu 07:24:55 PM 46.7847 -95.6308 88° East 512 589 37,000 -50 Level Minneapolis Center
Thu 07:25:55 PM 46.7886 -95.4250 89° East 512 589 36,900  Descending Minneapolis Center
Thu 07:26:55 PM 46.7919 -95.2158 89° East 512 589 37,000 50 Climbing Minneapolis Center
Thu 07:27:55 PM 46.7950 -95.0097 90° East 512 589 37,000  Level Minneapolis Center
Thu 07:28:55 PM 46.7956 -94.8036 88° East 512 589 37,000  Level Minneapolis Center
Thu 07:29:55 PM 46.8000 -94.5944 89° East 512 589 37,000 -50 Level Minneapolis Center
Thu 07:30:55 PM 46.8019 -94.3639 89° East 517 595 36,900 -50 Descending Minneapolis Center
Thu 07:31:55 PM 46.8036 -94.1578 89° East 511 588 36,900 50 Level Minneapolis Center
Thu 07:32:55 PM 46.8067 -93.9486 90° East 511 588 37,000 50 Climbing Minneapolis Center
Thu 07:33:55 PM 46.8075 -93.7394 91° East 511 588 37,000 -50 Level Minneapolis Center
Thu 07:34:55 PM 46.8058 -93.5269 90° East 517 595 36,900  Descending Minneapolis Center
Thu 07:35:55 PM 46.8058 -93.3208 90° East 512 589 37,000  Climbing Minneapolis Center
Thu 07:36:55 PM 46.8053 -93.1117 90° East 512 589 36,900  Descending Minneapolis Center
Thu 07:37:55 PM 46.8044 -92.8992 90° East 512 589 37,000 50 Climbing Minneapolis Center
Thu 07:38:54 PM 46.8033 -92.6931 90° East 512 589 37,000 -50 Level Minneapolis Center
Thu 07:39:55 PM 46.8019 -92.4808 90° East 517 595 36,900  Descending Minneapolis Center
Thu 07:40:55 PM 46.8019 -92.2747 92° East 517 595 37,000  Climbing Minneapolis Center
Thu 07:41:54 PM 46.7975 -92.0656 91° East 517 595 36,900 -50 Descending Minneapolis Center
Thu 07:42:55 PM 46.7950 -91.8625 91° East 517 595 36,900 50 Level Minneapolis Center
Thu 07:43:55 PM 46.7919 -91.6564 92° East 511 588 37,000 50 Climbing Minneapolis Center
Thu 07:44:55 PM 46.7864 -91.4503 91° East 511 588 37,000 -50 Level Minneapolis Center
Thu 07:45:55 PM 46.7828 -91.2411 91° East 511 588 36,900  Descending Minneapolis Center
Thu 07:46:55 PM 46.7814 -91.0656 93° East 497 572 37,000 50 Climbing Minneapolis Center
Thu 07:47:55 PM 46.7747 -90.8625 92° East 497 572 37,000  Level Minneapolis Center
Thu 07:48:55 PM 46.7700 -90.6567 92° East 497 572 37,000  Level Minneapolis Center
Thu 07:49:55 PM 46.7650 -90.4539 93° East 497 572 37,000  Level Minneapolis Center
Thu 07:50:55 PM 46.7572 -90.2481 93° East 497 572 37,000  Level Minneapolis Center
Thu 07:51:55 PM 46.7489 -90.0306 92° East 497 572 37,000  Level Minneapolis Center
Thu 07:52:55 PM 46.7450 -89.8275 93° East 497 572 37,000  Level Minneapolis Center
Thu 07:53:55 PM 46.7383 -89.6250 94° East 497 572 37,000  Level Minneapolis Center
Thu 07:54:54 PM 46.7294 -89.4256 93° East 492 566 37,000  Level Minneapolis Center
Thu 07:55:55 PM 46.7222 -89.2231 94° East 497 572 37,000  Level Minneapolis Center
Thu 07:56:55 PM 46.7125 -89.0239 93° East 497 572 37,000  Level Minneapolis Center
Thu 07:57:55 PM 46.7044 -88.8217 93° East 497 572 37,000  Level Minneapolis Center
Thu 07:58:55 PM 46.6961 -88.6192 94° East 497 572 37,000  Level Minneapolis Center
Thu 07:59:55 PM 46.6853 -88.4114 95° East 508 585 37,000  Level Minneapolis Center
Thu 08:00:55 PM 46.6750 -88.2306 93° East 508 585 37,000  Level Minneapolis Center
Thu 08:01:55 PM 46.6669 -88.0103 94° East 503 579 37,000  Level Minneapolis Center
Thu 08:02:55 PM 46.6572 -87.8083 96° East 493 567 37,000  Level Minneapolis Center
Thu 08:03:55 PM 46.6439 -87.6250 94° East 498 573 37,000  Level Minneapolis Center
Thu 08:04:55 PM 46.6333 -87.4203 94° East 498 573 37,000  Level Minneapolis Center
Thu 08:05:55 PM 46.6225 -87.2217 95° East 498 573 37,000  Level Minneapolis Center
Thu 08:06:55 PM 46.6092 -87.0172 95° East 498 573 37,000  Level Minneapolis Center
Thu 08:07:55 PM 46.5978 -86.8189 96° East 498 573 37,000  Level Minneapolis Center
Thu 08:08:55 PM 46.5842 -86.6208 96° East 498 573 37,000  Level Minneapolis Center
Thu 08:09:55 PM 46.5692 -86.4078 95° East 493 567 37,000  Level Minneapolis Center
Thu 08:10:55 PM 46.5581 -86.2308 95° East 493 567 37,000  Level Minneapolis Center
Thu 08:11:55 PM 46.5453 -86.0297 96° East 494 568 37,000  Level Minneapolis Center
Thu 08:12:55 PM 46.5300 -85.8322 95° East 494 568 37,000  Level Minneapolis Center
Thu 08:13:55 PM 46.5169 -85.6375 97° East 494 568 37,000  Level Minneapolis Center
Thu 08:14:55 PM 46.5014 -85.4431 98° East 489 563 37,000  Level Minneapolis Center
Thu 08:15:49 PM 46.4833 -85.2500 104° East 480 552 37,000  Level Toronto Center
Thu 08:16:49 PM 46.4500 -85.0500 90° East 470 541 37,000  Level Toronto Center
Thu 08:17:49 PM 46.4500 -84.8833 104° East 470 541 37,000  Level Toronto Center
Thu 08:18:49 PM 46.4167 -84.6833 90° East 470 541 37,000  Level Toronto Center
Thu 08:19:49 PM 46.4167 -84.5167 104° East 460 529 37,000  Level Toronto Center
Thu 08:20:49 PM 46.3833 -84.3167 113° Southeast 480 552 37,000  Level Toronto Center
Thu 08:21:49 PM 46.3333 -84.1500 121° Southeast 490 564 37,000  Level Toronto Center
Thu 08:22:49 PM 46.2500 -83.9500 106° East 500 575 37,000  Level Toronto Center
Thu 08:23:49 PM 46.2167 -83.7833 123° Southeast 500 575 37,000  Level Toronto Center
Thu 08:24:49 PM 46.1333 -83.6000 116° Southeast 510 587 37,000  Level Toronto Center
Thu 08:25:49 PM 46.0667 -83.4000 113° Southeast 510 587 37,000  Level Toronto Center
Thu 08:26:49 PM 46.0167 -83.2333 116° Southeast 510 587 37,000  Level Toronto Center
Thu 08:27:49 PM 45.9500 -83.0333 120° Southeast 510 587 37,000  Level Toronto Center
Thu 08:28:49 PM 45.8833 -82.8667 126° Southeast 510 587 37,000  Level Toronto Center
Thu 08:29:49 PM 45.8000 -82.7000 110° East 510 587 37,000  Level Toronto Center
Thu 08:30:49 PM 45.7500 -82.5000 120° Southeast 510 587 37,000  Level Toronto Center
Thu 08:31:49 PM 45.6833 -82.3333 115° Southeast 510 587 37,000  Level Toronto Center
Thu 08:32:49 PM 45.6167 -82.1333 113° Southeast 510 587 37,000  Level Toronto Center
Thu 08:33:49 PM 45.5667 -81.9667 120° Southeast 500 575 37,000 -300 Level Toronto Center
Thu 08:34:49 PM 45.5000 -81.8000 120° Southeast 490 564 36,400 -1,000 Descending Toronto Center
Thu 08:35:49 PM 45.4333 -81.6333 120° Southeast 480 552 35,000 -1,200 Descending Toronto Center
Thu 08:36:49 PM 45.3667 -81.4667 120° Southeast 490 564 34,000 -1,150 Descending Toronto Center
Thu 08:37:49 PM 45.3000 -81.3000 117° Southeast 490 564 32,700 -1,200 Descending Toronto Center
Thu 08:38:49 PM 45.2333 -81.1167 148° Southeast 490 564 31,600 -1,500 Descending Toronto Center
Thu 08:39:49 PM 45.1000 -81.0000 149° Southeast 520 598 29,700 -1,900 Descending Toronto Center
Thu 08:40:49 PM 44.9833 -80.9000 140° Southeast 510 587 27,800 -1,800 Descending Toronto Center
Thu 08:41:49 PM 44.8833 -80.7833 149° Southeast 500 575 26,100 -1,700 Descending Toronto Center
Thu 08:42:49 PM 44.7667 -80.6833 149° Southeast 490 564 24,400 -1,700 Descending Toronto Center
Thu 08:44:49 PM 44.5500 -80.5000 144° Southeast 460 529 21,000 -1,767 Descending Toronto Center
Thu 08:45:49 PM 44.4500 -80.4000 149° Southeast 440 506 19,100 -1,800 Descending Toronto Center
Thu 08:46:49 PM 44.3500 -80.3167 149° Southeast 430 495 17,400 -1,800 Descending Toronto Center
Thu 08:47:49 PM 44.2500 -80.2333 149° Southeast 420 483 15,500 -1,750 Descending Toronto Center
Thu 08:48:49 PM 44.1500 -80.1500 139° Southeast 400 460 13,900 -1,500 Descending Toronto Center
Thu 08:49:49 PM 44.0667 -80.0500 150° Southeast 390 449 12,500 -1,000 Descending Toronto Center
Thu 08:50:49 PM 43.9833 -79.9833 133° Southeast 360 414 11,900 -250 Descending Toronto Center
Thu 08:51:49 PM 43.9167 -79.8833 144° Southeast 330 380 12,000 -250 Climbing Toronto Center
Thu 08:52:49 PM 43.8500 -79.8167 144° Southeast 330 380 11,400 -850 Descending Toronto Center
Thu 08:53:49 PM 43.7833 -79.7500 103° East 310 357 10,300 -1,550 Descending Toronto Center
Thu 08:54:49 PM 43.7667 -79.6500 36° Northeast 250 288 8,300 -1,850 Descending Toronto Center
Thu 08:55:49 PM 43.8000 -79.6167 36° Northeast 200 230 6,600 -1,750 Descending Toronto Center
Thu 08:56:49 PM 43.8500 -79.5667 90° East 190 219 4,800 -1,350 Descending Toronto Center
Thu 08:57:49 PM 43.8500 -79.4667 180° South 200 230 3,900 -400 Descending Toronto Center
Thu 08:58:49 PM 43.8000 -79.4667 227° Southwest 230 265 4,000 -500 Climbing Toronto Center
Thu 08:59:49 PM 43.7667 -79.5167 227° Southwest 200 230 2,900 -1,150 Descending Toronto Center
Thu 09:00:49 PM 43.7333 -79.5667 200° South 170 196 1,700 -950 Descending Toronto Center
Thu 09:01:49 PM 43.7000 -79.5833 200° South 150 173 1,000 -700 Descending Toronto Center

Login

Don't have an account? Register now (free) for customized features, flight alerts, and more!